Time;durP1;ratioP1;P1;durP2;ratioP2;P2;SDS_P1;SDS_P2;PMS_P1;PMS_P2;Temp;Humidity;BMP_temperature;BMP_pressure;BME280_temperature;BME280_humidity;BME280_pressure;Samples;Min_cycle;Max_cycle;Signal;HPM_P1;HPM_P2
2023/09/12 00:01:33;;;;;;;;;;;;;;;;;;5048118;28;19935;-69
2023/09/12 00:03:59;;;;;;;;;;;;;;;;;;5053431;28;19925;-70
2023/09/12 00:06:25;;;;;;;;;;;;;;;;;;5058379;28;20481;-69
2023/09/12 00:08:51;;;;;;;;;;;;;;;;;;5047358;28;19925;-70
2023/09/12 00:11:17;;;;;;;;;;;;;;;;;;5052566;28;19925;-70
2023/09/12 00:13:43;;;;;;;;;;;;;;;;;;5055524;28;20433;-69
2023/09/12 00:16:10;;;;;;;;;;;;;;;;;;5054134;28;20021;-71
2023/09/12 00:18:36;;;;;;;;;;;;;;;;;;5046013;28;19924;-70
2023/09/12 00:21:02;;;;;;;;;;;;;;;;;;5042470;28;20413;-70
2023/09/12 00:23:28;;;;;;;;;;;;;;;;;;5048461;28;19925;-70
2023/09/12 00:25:54;;;;;;;;;;;;;;;;;;5046444;28;19948;-69
2023/09/12 00:28:20;;;;;;;;;;;;;;;;;;5048104;28;20059;-70
2023/09/12 00:30:46;;;;;;;;;;;;;;;;;;5047450;28;20008;-70
2023/09/12 00:33:12;;;;;;;;;;;;;;;;;;5043365;28;20012;-70
2023/09/12 00:35:38;;;;;;;;;;;;;;;;;;5054029;28;19970;-70
2023/09/12 00:38:04;;;;;;;;;;;;;;;;;;5051742;28;19932;-71
2023/09/12 00:40:30;;;;;;;;;;;;;;;;;;5055623;28;19924;-70
2023/09/12 00:42:56;;;;;;;;;;;;;;;;;;5044157;28;20866;-71
2023/09/12 00:45:22;;;;;;;;;;;;;;;;;;5058513;28;20007;-70
2023/09/12 00:47:48;;;;;;;;;;;;;;;;;;5042701;28;20020;-71
2023/09/12 00:50:14;;;;;;;;;;;;;;;;;;5055375;28;20011;-70
2023/09/12 00:52:39;;;;;;;;;;;;;;;;;;5042777;28;19990;-71
2023/09/12 00:55:05;;;;;;;;;;;;;;;;;;5045504;28;20402;-70
2023/09/12 00:57:31;;;;;;;;;;;;;;;;;;5050869;28;19964;-70
2023/09/12 00:59:57;;;;;;;;;;;;;;;;;;5049112;28;19921;-70
2023/09/12 01:02:23;;;;;;;;;;;;;;;;;;5025446;28;19933;-70
2023/09/12 01:04:49;;;;;;;;;;;;;;;;;;5105914;22;19913;-63
2023/09/12 01:07:15;;;;;;;;;;;;;;;;;;5037650;28;20435;-62
2023/09/12 01:09:41;;;;;;;;;;;;;;;;;;5048292;28;19935;-63
2023/09/12 01:12:07;;;;;;;;;;;;;;;;;;5047226;28;19925;-62
2023/09/12 01:14:33;;;;;;;;;;;;;;;;;;5046641;28;20369;-62
2023/09/12 01:16:59;;;;;;;;;;;;;;;;;;5042597;28;19929;-62
2023/09/12 01:19:25;;;;;;;;;;;;;;;;;;5044400;28;19968;-62
2023/09/12 01:21:51;;;;;;;;;;;;;;;;;;5045505;28;20729;-62
2023/09/12 01:24:17;;;;;;;;;;;;;;;;;;5051645;28;19925;-62
2023/09/12 01:26:43;;;;;;;;;;;;;;;;;;5044850;28;19931;-62
2023/09/12 01:29:09;;;;;;;;;;;;;;;;;;5025540;28;20297;-62
2023/09/12 01:31:34;;;;;;;;;;;;;;;;;;5044070;28;19925;-62
2023/09/12 01:34:00;;;;;;;;;;;;;;;;;;5045422;28;19925;-62
2023/09/12 01:36:26;;;;;;;;;;;;;;;;;;5043885;28;19972;-62
2023/09/12 01:38:52;;;;;;;;;;;;;;;;;;5044390;28;20353;-62
2023/09/12 01:41:18;;;;;;;;;;;;;;;;;;5049738;28;19975;-62
2023/09/12 01:43:44;;;;;;;;;;;;;;;;;;5044216;28;19929;-62
2023/09/12 01:46:10;;;;;;;;;;;;;;;;;;5046449;28;19939;-62
2023/09/12 01:48:36;;;;;;;;;;;;;;;;;;5045053;28;20310;-62
2023/09/12 01:51:02;;;;;;;;;;;;;;;;;;5044966;28;20007;-62
2023/09/12 01:53:28;;;;;;;;;;;;;;;;;;5045133;28;20098;-62
2023/09/12 01:55:53;;;;;;;;;;;;;;;;;;5045260;28;20000;-63
2023/09/12 01:58:19;;;;;;;;;;;;;;;;;;5044112;28;20004;-62
2023/09/12 02:00:45;;;;;;;;;;;;;;;;;;5045010;28;19924;-62
2023/09/12 02:03:11;;;;;;;;;;;;;;;;;;5049976;28;19924;-62
2023/09/12 02:05:37;;;;;;;;;;;;;;;;;;5044177;28;20003;-62
2023/09/12 02:08:04;;;;;;;;;;;;;;;;;;5044369;28;19924;-63
2023/09/12 02:10:30;;;;;;;;;;;;;;;;;;5044164;28;19921;-62
2023/09/12 02:12:56;;;;;;;;;;;;;;;;;;5045096;28;19987;-62
2023/09/12 02:15:22;;;;;;;;;;;;;;;;;;5055932;28;19924;-63
2023/09/12 02:17:50;;;;;;;;;;;;;;;;;;5045362;28;20527;-62
2023/09/12 02:20:16;;;;;;;;;;;;;;;;;;5025701;28;19925;-62
2023/09/12 02:22:42;;;;;;;;;;;;;;;;;;5044385;28;19929;-62
2023/09/12 02:25:08;;;;;;;;;;;;;;;;;;5043439;28;19931;-62
2023/09/12 02:27:34;;;;;;;;;;;;;;;;;;5045197;28;19925;-62
2023/09/12 02:30:00;;;;;;;;;;;;;;;;;;5044617;28;19925;-63
2023/09/12 02:32:26;;;;;;;;;;;;;;;;;;5044560;28;19995;-62
2023/09/12 02:34:53;;;;;;;;;;;;;;;;;;5044081;28;19940;-62
2023/09/12 02:37:19;;;;;;;;;;;;;;;;;;5043015;28;19924;-62
2023/09/12 02:39:45;;;;;;;;;;;;;;;;;;5044374;28;20622;-62
2023/09/12 02:42:11;;;;;;;;;;;;;;;;;;5044604;28;19925;-62
2023/09/12 02:44:36;;;;;;;;;;;;;;;;;;5043586;28;19983;-62
2023/09/12 02:47:02;;;;;;;;;;;;;;;;;;5043652;28;19920;-62
2023/09/12 02:49:28;;;;;;;;;;;;;;;;;;5043558;28;20501;-62
2023/09/12 02:51:54;;;;;;;;;;;;;;;;;;5043127;28;20058;-64
2023/09/12 02:54:20;;;;;;;;;;;;;;;;;;5044456;28;19970;-62
2023/09/12 02:56:46;;;;;;;;;;;;;;;;;;5043909;28;19924;-62
2023/09/12 02:59:12;;;;;;;;;;;;;;;;;;5044149;28;20384;-63
2023/09/12 03:01:38;;;;;;;;;;;;;;;;;;5043337;28;19925;-63
2023/09/12 03:04:04;;;;;;;;;;;;;;;;;;5053906;28;19925;-62
2023/09/12 03:06:30;;;;;;;;;;;;;;;;;;5043659;28;19932;-62
2023/09/12 03:08:56;;;;;;;;;;;;;;;;;;5043572;28;19932;-62
2023/09/12 03:11:22;;;;;;;;;;;;;;;;;;5043735;28;20569;-62
2023/09/12 03:13:48;;;;;;;;;;;;;;;;;;5043834;28;19971;-62
2023/09/12 03:16:14;;;;;;;;;;;;;;;;;;5048979;28;20401;-63
2023/09/12 03:18:40;;;;;;;;;;;;;;;;;;5042131;28;19927;-62
2023/09/12 03:21:06;;;;;;;;;;;;;;;;;;5043231;28;19928;-63
2023/09/12 03:23:32;;;;;;;;;;;;;;;;;;5044163;28;19932;-62
2023/09/12 03:25:57;;;;;;;;;;;;;;;;;;5043743;28;20004;-63
2023/09/12 03:28:23;;;;;;;;;;;;;;;;;;5044078;28;19972;-62
2023/09/12 03:30:49;;;;;;;;;;;;;;;;;;5036429;28;20441;-62
2023/09/12 03:33:15;;;;;;;;;;;;;;;;;;5042802;28;19931;-62
2023/09/12 03:35:41;;;;;;;;;;;;;;;;;;5042830;28;19925;-62
2023/09/12 03:38:07;;;;;;;;;;;;;;;;;;5051591;28;19933;-62
2023/09/12 03:40:33;;;;;;;;;;;;;;;;;;5043762;28;19947;-62
2023/09/12 03:42:59;;;;;;;;;;;;;;;;;;5052171;28;20274;-63
2023/09/12 03:45:25;;;;;;;;;;;;;;;;;;5042102;28;20028;-63
2023/09/12 03:47:51;;;;;;;;;;;;;;;;;;5029933;28;19925;-62
2023/09/12 03:50:17;;;;;;;;;;;;;;;;;;5042561;28;19928;-62
2023/09/12 03:52:42;;;;;;;;;;;;;;;;;;5042991;28;19972;-62
2023/09/12 03:55:08;;;;;;;;;;;;;;;;;;5017014;28;19964;-62
2023/09/12 03:57:34;;;;;;;;;;;;;;;;;;5037049;28;19998;-62
2023/09/12 04:00:00;;;;;;;;;;;;;;;;;;5042179;28;19947;-62
2023/09/12 04:02:26;;;;;;;;;;;;;;;;;;5041616;28;19952;-63
2023/09/12 04:04:52;;;;;;;;;;;;;;;;;;5042665;28;19925;-62
2023/09/12 04:07:18;;;;;;;;;;;;;;;;;;5041966;28;19925;-62
2023/09/12 04:09:44;;;;;;;;;;;;;;;;;;5042612;28;20176;-62
2023/09/12 04:12:10;;;;;;;;;;;;;;;;;;5043059;28;19971;-62
2023/09/12 04:14:36;;;;;;;;;;;;;;;;;;5048860;28;19924;-62
2023/09/12 04:17:02;;;;;;;;;;;;;;;;;;5043604;28;20552;-62
2023/09/12 04:19:27;;;;;;;;;;;;;;;;;;5042840;28;20321;-62
2023/09/12 04:21:53;;;;;;;;;;;;;;;;;;5042848;28;20313;-62
2023/09/12 04:24:20;;;;;;;;;;;;;;;;;;5042775;28;20659;-62
2023/09/12 04:26:46;;;;;;;;;;;;;;;;;;5041959;28;19924;-62
2023/09/12 04:29:12;;;;;;;;;;;;;;;;;;5042331;28;20401;-62
2023/09/12 04:31:38;;;;;;;;;;;;;;;;;;5041168;28;19925;-62
2023/09/12 04:34:04;;;;;;;;;;;;;;;;;;5041566;28;19931;-62
2023/09/12 04:36:30;;;;;;;;;;;;;;;;;;5048404;28;19925;-62
2023/09/12 04:38:56;;;;;;;;;;;;;;;;;;5049221;28;20297;-63
2023/09/12 04:41:22;;;;;;;;;;;;;;;;;;5046764;28;19932;-63
2023/09/12 04:43:48;;;;;;;;;;;;;;;;;;5061332;28;19925;-62
2023/09/12 04:46:14;;;;;;;;;;;;;;;;;;5046784;28;20087;-62
2023/09/12 04:48:40;;;;;;;;;;;;;;;;;;5054152;28;19925;-62
2023/09/12 04:51:06;;;;;;;;;;;;;;;;;;5034646;28;19932;-62
2023/09/12 04:53:35;;;;;;;;;;;;;;;;;;5045798;28;19933;-62
2023/09/12 04:56:01;;;;;;;;;;;;;;;;;;5058286;28;19929;-62
2023/09/12 04:58:27;;;;;;;;;;;;;;;;;;5045692;28;19988;-62
2023/09/12 05:00:53;;;;;;;;;;;;;;;;;;5046014;28;20420;-62
2023/09/12 05:03:19;;;;;;;;;;;;;;;;;;5046840;28;19932;-62
2023/09/12 05:05:45;;;;;;;;;;;;;;;;;;5044207;28;19929;-63
2023/09/12 05:08:10;;;;;;;;;;;;;;;;;;5044075;28;19931;-63
2023/09/12 05:10:36;;;;;;;;;;;;;;;;;;5045860;28;19921;-63
2023/09/12 05:13:02;;;;;;;;;;;;;;;;;;5045350;28;19951;-63
2023/09/12 05:15:28;;;;;;;;;;;;;;;;;;5049078;28;19994;-62
2023/09/12 05:17:54;;;;;;;;;;;;;;;;;;5044485;28;19929;-63
2023/09/12 05:20:20;;;;;;;;;;;;;;;;;;5048005;28;19932;-62
2023/09/12 05:22:46;;;;;;;;;;;;;;;;;;5045149;28;19924;-62
2023/09/12 05:25:12;;;;;;;;;;;;;;;;;;5046051;28;20447;-62
2023/09/12 05:27:38;;;;;;;;;;;;;;;;;;5045027;28;19920;-62
2023/09/12 05:30:04;;;;;;;;;;;;;;;;;;5045957;28;20340;-63
2023/09/12 05:32:30;;;;;;;;;;;;;;;;;;5049713;28;19951;-62
2023/09/12 05:34:56;;;;;;;;;;;;;;;;;;5044778;28;20286;-62
2023/09/12 05:37:22;;;;;;;;;;;;;;;;;;5046358;28;19940;-62
2023/09/12 05:39:48;;;;;;;;;;;;;;;;;;5034367;28;19921;-62
2023/09/12 05:42:20;;;;;;;;;;;;;;;;;;5044264;28;20263;-62
2023/09/12 05:44:46;;;;;;;;;;;;;;;;;;5044557;28;19932;-62
2023/09/12 05:47:12;;;;;;;;;;;;;;;;;;5043884;28;20614;-62
2023/09/12 05:49:38;;;;;;;;;;;;;;;;;;5045136;28;19924;-62
2023/09/12 05:52:04;;;;;;;;;;;;;;;;;;5048938;28;19924;-62
2023/09/12 05:54:30;;;;;;;;;;;;;;;;;;5045583;28;19943;-63
2023/09/12 05:56:56;;;;;;;;;;;;;;;;;;5044714;28;19924;-60
2023/09/12 05:59:22;;;;;;;;;;;;;;;;;;5046161;28;19925;-63
2023/09/12 06:01:48;;;;;;;;;;;;;;;;;;5045083;28;19978;-62
2023/09/12 06:04:14;;;;;;;;;;;;;;;;;;5051520;28;19936;-62
2023/09/12 06:06:40;;;;;;;;;;;;;;;;;;5044473;28;19924;-61
2023/09/12 06:09:08;;;;;;;;;;;;;;;;;;5044626;28;20015;-62
2023/09/12 06:11:34;;;;;;;;;;;;;;;;;;5042833;28;19975;-62
2023/09/12 06:14:00;;;;;;;;;;;;;;;;;;5042471;28;19972;-62
2023/09/12 06:16:26;;;;;;;;;;;;;;;;;;5044611;28;20360;-62
2023/09/12 06:18:53;;;;;;;;;;;;;;;;;;5044260;28;19933;-62
2023/09/12 06:21:21;;;;;;;;;;;;;;;;;;5043514;28;20646;-62
2023/09/12 06:23:46;;;;;;;;;;;;;;;;;;5041439;28;19986;-62
2023/09/12 06:26:12;;;;;;;;;;;;;;;;;;5042507;28;19929;-62
2023/09/12 06:28:38;;;;;;;;;;;;;;;;;;5042557;28;19921;-63
2023/09/12 06:31:04;;;;;;;;;;;;;;;;;;5042264;28;20361;-62
2023/09/12 06:33:30;;;;;;;;;;;;;;;;;;5042419;28;19921;-62
2023/09/12 06:35:56;;;;;;;;;;;;;;;;;;5042014;28;20457;-62
2023/09/12 06:38:22;;;;;;;;;;;;;;;;;;5042897;28;20066;-62
2023/09/12 06:40:48;;;;;;;;;;;;;;;;;;5043475;28;19920;-62
2023/09/12 06:43:14;;;;;;;;;;;;;;;;;;5046104;28;20047;-62
2023/09/12 06:45:40;;;;;;;;;;;;;;;;;;5048658;28;19928;-62
2023/09/12 06:48:06;;;;;;;;;;;;;;;;;;5042879;28;20355;-62
2023/09/12 06:50:32;;;;;;;;;;;;;;;;;;5042939;28;20452;-62
2023/09/12 06:52:58;;;;;;;;;;;;;;;;;;5043593;28;19932;-63
2023/09/12 06:55:23;;;;;;;;;;;;;;;;;;5044044;28;19931;-63
2023/09/12 06:57:50;;;;;;;;;;;;;;;;;;5044125;28;19943;-62
2023/09/12 07:00:16;;;;;;;;;;;;;;;;;;5043519;28;19932;-62
2023/09/12 07:02:42;;;;;;;;;;;;;;;;;;5042177;28;19948;-63
2023/09/12 07:05:08;;;;;;;;;;;;;;;;;;5042333;28;19925;-62
2023/09/12 07:07:34;;;;;;;;;;;;;;;;;;5043590;28;19932;-62
2023/09/12 07:10:00;;;;;;;;;;;;;;;;;;5043231;28;19921;-62
2023/09/12 07:12:26;;;;;;;;;;;;;;;;;;5043320;28;19925;-63
2023/09/12 07:14:52;;;;;;;;;;;;;;;;;;5052061;28;19940;-62
2023/09/12 07:17:18;;;;;;;;;;;;;;;;;;5041460;28;19925;-62
2023/09/12 07:19:44;;;;;;;;;;;;;;;;;;5043028;28;19948;-62
2023/09/12 07:22:10;;;;;;;;;;;;;;;;;;5043096;28;19921;-62
2023/09/12 07:24:36;;;;;;;;;;;;;;;;;;5047145;28;19924;-62
2023/09/12 07:27:02;;;;;;;;;;;;;;;;;;5043449;28;20106;-62
2023/09/12 07:29:28;;;;;;;;;;;;;;;;;;5043088;28;19971;-62
2023/09/12 07:31:54;;;;;;;;;;;;;;;;;;5042665;28;19968;-62
2023/09/12 07:34:20;;;;;;;;;;;;;;;;;;5042826;28;19916;-62
2023/09/12 07:36:46;;;;;;;;;;;;;;;;;;5043485;28;19925;-62
2023/09/12 07:39:12;;;;;;;;;;;;;;;;;;5042926;28;19990;-62
2023/09/12 07:41:38;;;;;;;;;;;;;;;;;;5042696;28;19924;-62
2023/09/12 07:44:04;;;;;;;;;;;;;;;;;;5041414;28;20076;-62
2023/09/12 07:46:30;;;;;;;;;;;;;;;;;;5042155;28;19924;-62
2023/09/12 07:48:56;;;;;;;;;;;;;;;;;;5043395;28;20300;-62
2023/09/12 07:51:22;;;;;;;;;;;;;;;;;;5043214;28;19939;-62
2023/09/12 07:53:49;;;;;;;;;;;;;;;;;;5042784;28;20024;-62
2023/09/12 07:56:14;;;;;;;;;;;;;;;;;;5042087;28;19978;-63
2023/09/12 07:58:40;;;;;;;;;;;;;;;;;;5042298;28;20321;-62
2023/09/12 08:01:07;;;;;;;;;;;;;;;;;;5042782;28;19980;-62
2023/09/12 08:03:33;;;;;;;;;;;;;;;;;;5042876;28;20404;-62
2023/09/12 08:05:59;;;;;;;;;;;;;;;;;;5041742;28;20007;-62
2023/09/12 08:08:25;;;;;;;;;;;;;;;;;;5043213;28;20409;-63
2023/09/12 08:10:50;;;;;;;;;;;;;;;;;;5042480;28;19925;-62
2023/09/12 08:13:16;;;;;;;;;;;;;;;;;;5043002;28;19932;-62
2023/09/12 08:15:42;;;;;;;;;;;;;;;;;;5053391;28;19933;-62
2023/09/12 08:18:08;;;;;;;;;;;;;;;;;;5045724;28;19928;-62
2023/09/12 08:20:34;;;;;;;;;;;;;;;;;;5046166;28;19924;-62
2023/09/12 08:23:00;;;;;;;;;;;;;;;;;;5045295;28;19987;-62
2023/09/12 08:25:27;;;;;;;;;;;;;;;;;;5047134;28;20397;-63
2023/09/12 08:27:52;;;;;;;;;;;;;;;;;;5029050;28;20437;-62
2023/09/12 08:30:18;;;;;;;;;;;;;;;;;;5046471;28;19921;-62
2023/09/12 08:32:44;;;;;;;;;;;;;;;;;;5027358;28;19925;-62
2023/09/12 08:35:11;;;;;;;;;;;;;;;;;;5045977;28;20042;-62
2023/09/12 08:37:37;;;;;;;;;;;;;;;;;;5045340;28;20608;-62
2023/09/12 08:40:07;;;;;;;;;;;;;;;;;;5028634;28;19925;-62
2023/09/12 08:42:33;;;;;;;;;;;;;;;;;;5046514;28;19931;-62
2023/09/12 08:44:59;;;;;;;;;;;;;;;;;;5046236;28;19925;-62
2023/09/12 08:47:25;;;;;;;;;;;;;;;;;;5045071;28;19973;-63
2023/09/12 08:49:51;;;;;;;;;;;;;;;;;;5045463;28;19925;-62
2023/09/12 08:52:17;;;;;;;;;;;;;;;;;;5045798;28;20012;-62
2023/09/12 08:54:42;;;;;;;;;;;;;;;;;;5046168;28;19986;-62
2023/09/12 08:57:08;;;;;;;;;;;;;;;;;;5045556;28;19925;-62
2023/09/12 08:59:34;;;;;;;;;;;;;;;;;;5045722;28;19928;-62
2023/09/12 09:02:00;;;;;;;;;;;;;;;;;;5045096;28;19972;-62
2023/09/12 09:04:28;;;;;;;;;;;;;;;;;;5045486;28;19932;-62
2023/09/12 09:06:54;;;;;;;;;;;;;;;;;;5026975;28;20431;-62
2023/09/12 09:09:20;;;;;;;;;;;;;;;;;;5046006;28;20016;-62
2023/09/12 09:11:47;;;;;;;;;;;;;;;;;;5027993;28;20013;-62
2023/09/12 09:14:13;;;;;;;;;;;;;;;;;;5044948;28;20224;-61
2023/09/12 09:16:39;;;;;;;;;;;;;;;;;;5043746;28;20433;-62
2023/09/12 09:19:09;;;;;;;;;;;;;;;;;;5046152;28;19920;-62
2023/09/12 09:21:35;;;;;;;;;;;;;;;;;;5045701;28;19925;-61
2023/09/12 09:24:01;;;;;;;;;;;;;;;;;;5044884;28;19925;-62
2023/09/12 09:26:27;;;;;;;;;;;;;;;;;;5045172;28;20011;-63
2023/09/12 09:28:53;;;;;;;;;;;;;;;;;;5045234;28;19933;-62
2023/09/12 09:31:19;;;;;;;;;;;;;;;;;;5044243;28;19931;-62
2023/09/12 09:33:51;;;;;;;;;;;;;;;;;;5045245;28;19932;-62
2023/09/12 09:36:16;;;;;;;;;;;;;;;;;;5045475;28;20625;-62
2023/09/12 09:38:42;;;;;;;;;;;;;;;;;;5045166;28;19939;-61
2023/09/12 09:41:09;;;;;;;;;;;;;;;;;;5043955;28;19931;-62
2023/09/12 09:43:35;;;;;;;;;;;;;;;;;;5045282;28;19925;-62
2023/09/12 09:46:01;;;;;;;;;;;;;;;;;;5043883;28;19932;-62
2023/09/12 09:48:26;;;;;;;;;;;;;;;;;;5045057;28;19924;-63
2023/09/12 09:50:52;;;;;;;;;;;;;;;;;;5045743;28;19931;-62
2023/09/12 09:53:18;;;;;;;;;;;;;;;;;;5044284;28;19925;-62
2023/09/12 09:55:44;;;;;;;;;;;;;;;;;;5044492;28;19960;-62
2023/09/12 09:58:11;;;;;;;;;;;;;;;;;;5045127;28;19968;-62
2023/09/12 10:00:37;;;;;;;;;;;;;;;;;;5043645;28;19932;-62
2023/09/12 10:03:03;;;;;;;;;;;;;;;;;;5044724;28;19929;-62
2023/09/12 10:05:29;;;;;;;;;;;;;;;;;;5044152;28;19925;-62
2023/09/12 10:07:55;;;;;;;;;;;;;;;;;;5044102;28;20309;-62
2023/09/12 10:10:21;;;;;;;;;;;;;;;;;;5045005;28;20382;-62
2023/09/12 10:12:47;;;;;;;;;;;;;;;;;;5039107;28;19921;-62
2023/09/12 10:15:15;;;;;;;;;;;;;;;;;;5053639;28;19940;-62
2023/09/12 10:17:41;;;;;;;;;;;;;;;;;;5044411;28;19925;-62
2023/09/12 10:20:10;;;;;;;;;;;;;;;;;;5024909;28;19932;-62
2023/09/12 10:22:36;;;;;;;;;;;;;;;;;;5044142;28;19925;-62
2023/09/12 10:25:02;;;;;;;;;;;;;;;;;;5044628;28;19929;-62
2023/09/12 10:27:28;;;;;;;;;;;;;;;;;;5044016;28;20030;-62
2023/09/12 10:29:56;;;;;;;;;;;;;;;;;;5026612;28;19967;-62
2023/09/12 10:32:22;;;;;;;;;;;;;;;;;;5042482;28;19932;-62
2023/09/12 10:34:47;;;;;;;;;;;;;;;;;;5044420;28;19925;-62
2023/09/12 10:37:13;;;;;;;;;;;;;;;;;;5050446;28;19931;-62
2023/09/12 10:39:39;;;;;;;;;;;;;;;;;;5045127;28;20420;-62
2023/09/12 10:42:05;;;;;;;;;;;;;;;;;;5044220;28;20465;-62
2023/09/12 10:44:31;;;;;;;;;;;;;;;;;;5043394;28;20453;-63
2023/09/12 10:46:57;;;;;;;;;;;;;;;;;;5042733;28;20016;-63
2023/09/12 10:49:23;;;;;;;;;;;;;;;;;;5044340;28;19925;-62
2023/09/12 10:51:49;;;;;;;;;;;;;;;;;;5043504;28;19947;-62
2023/09/12 10:54:15;;;;;;;;;;;;;;;;;;5044061;28;20266;-62
2023/09/12 10:56:41;;;;;;;;;;;;;;;;;;5044167;28;20374;-62
2023/09/12 10:59:08;;;;;;;;;;;;;;;;;;5042840;28;19971;-62
2023/09/12 11:01:34;;;;;;;;;;;;;;;;;;5042163;28;19935;-62
2023/09/12 11:04:00;;;;;;;;;;;;;;;;;;5043386;28;19925;-63
2023/09/12 11:06:25;;;;;;;;;;;;;;;;;;5043472;28;20313;-62
2023/09/12 11:08:52;;;;;;;;;;;;;;;;;;5044271;28;19928;-63
2023/09/12 11:11:21;;;;;;;;;;;;;;;;;;5043421;28;20474;-63
2023/09/12 11:13:47;;;;;;;;;;;;;;;;;;5043109;28;20007;-63
2023/09/12 11:16:13;;;;;;;;;;;;;;;;;;5042446;28;20704;-63
2023/09/12 11:18:39;;;;;;;;;;;;;;;;;;5045218;28;19928;-63
2023/09/12 11:21:05;;;;;;;;;;;;;;;;;;5053699;28;19924;-63
2023/09/12 11:23:34;;;;;;;;;;;;;;;;;;5042134;28;19924;-63
2023/09/12 11:26:00;;;;;;;;;;;;;;;;;;5042450;28;19924;-63
2023/09/12 11:28:26;;;;;;;;;;;;;;;;;;5043262;28;19925;-63
2023/09/12 11:30:52;;;;;;;;;;;;;;;;;;5046338;28;19932;-63
2023/09/12 11:33:18;;;;;;;;;;;;;;;;;;5043457;28;19938;-63
2023/09/12 11:35:44;;;;;;;;;;;;;;;;;;5040667;28;19929;-63
2023/09/12 11:38:09;;;;;;;;;;;;;;;;;;5039690;28;20396;-63
2023/09/12 11:40:35;;;;;;;;;;;;;;;;;;5039999;28;20435;-63
2023/09/12 11:43:01;;;;;;;;;;;;;;;;;;5039565;28;19928;-63
2023/09/12 11:45:27;;;;;;;;;;;;;;;;;;5044332;28;19932;-63
2023/09/12 11:47:53;;;;;;;;;;;;;;;;;;5023112;28;19928;-63
2023/09/12 11:50:19;;;;;;;;;;;;;;;;;;5044191;28;19935;-62
2023/09/12 11:52:45;;;;;;;;;;;;;;;;;;5040770;28;19935;-63
2023/09/12 11:55:11;;;;;;;;;;;;;;;;;;5037122;28;19920;-62
2023/09/12 11:57:38;;;;;;;;;;;;;;;;;;5042058;28;19924;-62
2023/09/12 12:00:08;;;;;;;;;;;;;;;;;;5047129;28;19968;-62
2023/09/12 12:02:34;;;;;;;;;;;;;;;;;;5041726;28;20270;-63
2023/09/12 12:05:01;;;;;;;;;;;;;;;;;;5041997;28;20045;-63
2023/09/12 12:07:27;;;;;;;;;;;;;;;;;;5042592;28;19967;-63
2023/09/12 12:09:52;;;;;;;;;;;;;;;;;;5043054;28;19987;-62
2023/09/12 12:12:18;;;;;;;;;;;;;;;;;;5040911;28;19925;-62
2023/09/12 12:14:44;;;;;;;;;;;;;;;;;;5053692;28;19925;-63
2023/09/12 12:17:10;;;;;;;;;;;;;;;;;;5038814;28;19944;-63
2023/09/12 12:19:36;;;;;;;;;;;;;;;;;;5040212;28;20598;-62
2023/09/12 12:22:02;;;;;;;;;;;;;;;;;;5039613;28;19944;-63
2023/09/12 12:24:28;;;;;;;;;;;;;;;;;;5040398;28;19925;-63
2023/09/12 12:26:54;;;;;;;;;;;;;;;;;;5040245;28;20282;-63
2023/09/12 12:29:20;;;;;;;;;;;;;;;;;;5041470;28;20581;-62
2023/09/12 12:31:46;;;;;;;;;;;;;;;;;;5040273;28;19928;-62
2023/09/12 12:34:12;;;;;;;;;;;;;;;;;;5042140;28;19983;-62
2023/09/12 12:36:38;;;;;;;;;;;;;;;;;;5042826;28;19968;-61
2023/09/12 12:39:04;;;;;;;;;;;;;;;;;;5042802;28;19931;-62
2023/09/12 12:41:30;;;;;;;;;;;;;;;;;;5042496;28;20457;-62
2023/09/12 12:43:58;;;;;;;;;;;;;;;;;;5023790;28;19929;-64
2023/09/12 12:46:24;;;;;;;;;;;;;;;;;;5048395;28;19968;-63
2023/09/12 12:48:50;;;;;;;;;;;;;;;;;;5042054;28;19987;-62
2023/09/12 12:51:16;;;;;;;;;;;;;;;;;;5041603;28;19947;-62
2023/09/12 12:53:42;;;;;;;;;;;;;;;;;;5042194;28;19960;-62
2023/09/12 12:56:08;;;;;;;;;;;;;;;;;;5042084;28;20007;-62
2023/09/12 12:58:35;;;;;;;;;;;;;;;;;;5044716;28;20000;-62
2023/09/12 13:01:00;;;;;;;;;;;;;;;;;;5024297;28;20382;-62
2023/09/12 13:03:26;;;;;;;;;;;;;;;;;;5044754;28;19977;-62
2023/09/12 13:05:52;;;;;;;;;;;;;;;;;;5045498;28;20003;-62
2023/09/12 13:08:18;;;;;;;;;;;;;;;;;;5045566;28;20059;-62
2023/09/12 13:10:44;;;;;;;;;;;;;;;;;;5044947;28;19987;-62
2023/09/12 13:13:10;;;;;;;;;;;;;;;;;;5045623;28;20425;-62
2023/09/12 13:15:36;;;;;;;;;;;;;;;;;;5046707;28;19929;-62
2023/09/12 13:18:03;;;;;;;;;;;;;;;;;;5045306;28;19948;-62
2023/09/12 13:20:29;;;;;;;;;;;;;;;;;;5029546;28;20070;-62
2023/09/12 13:22:55;;;;;;;;;;;;;;;;;;5045580;28;20011;-62
2023/09/12 13:25:23;;;;;;;;;;;;;;;;;;5044344;28;19925;-62
2023/09/12 13:27:49;;;;;;;;;;;;;;;;;;5049233;28;19924;-62
2023/09/12 13:30:15;;;;;;;;;;;;;;;;;;5044290;28;19932;-62
2023/09/12 13:32:41;;;;;;;;;;;;;;;;;;5045312;28;19924;-62
2023/09/12 13:35:07;;;;;;;;;;;;;;;;;;5045723;28;19932;-62
2023/09/12 13:37:33;;;;;;;;;;;;;;;;;;5043888;28;20015;-62
2023/09/12 13:39:59;;;;;;;;;;;;;;;;;;5044832;28;20070;-62
2023/09/12 13:42:30;;;;;;;;;;;;;;;;;;5047954;28;19931;-62
2023/09/12 13:44:56;;;;;;;;;;;;;;;;;;5013374;28;19932;-62
2023/09/12 13:47:22;;;;;;;;;;;;;;;;;;5058457;28;19933;-61
2023/09/12 13:49:48;;;;;;;;;;;;;;;;;;5044368;28;19932;-61
2023/09/12 13:52:17;;;;;;;;;;;;;;;;;;5027364;28;19932;-62
2023/09/12 13:54:43;;;;;;;;;;;;;;;;;;5045382;28;19967;-62
2023/09/12 13:57:09;;;;;;;;;;;;;;;;;;5046332;28;19931;-62
2023/09/12 13:59:35;;;;;;;;;;;;;;;;;;5046701;28;19924;-61
2023/09/12 14:02:01;;;;;;;;;;;;;;;;;;5042808;28;19978;-61
2023/09/12 14:04:27;;;;;;;;;;;;;;;;;;5044759;28;21310;-62
2023/09/12 14:06:53;;;;;;;;;;;;;;;;;;5043554;28;19965;-62
2023/09/12 14:09:19;;;;;;;;;;;;;;;;;;5047491;28;19932;-61
2023/09/12 14:11:46;;;;;;;;;;;;;;;;;;5045741;28;19959;-61
2023/09/12 14:14:12;;;;;;;;;;;;;;;;;;5046399;28;20518;-62
2023/09/12 14:16:38;;;;;;;;;;;;;;;;;;5048495;28;20005;-61
2023/09/12 14:19:04;;;;;;;;;;;;;;;;;;5042688;28;19931;-62
2023/09/12 14:21:30;;;;;;;;;;;;;;;;;;5046237;28;19967;-62
2023/09/12 14:23:56;;;;;;;;;;;;;;;;;;5043485;28;20306;-61
2023/09/12 14:26:22;;;;;;;;;;;;;;;;;;5044176;28;20345;-61
2023/09/12 14:28:48;;;;;;;;;;;;;;;;;;5044748;28;19932;-61
2023/09/12 14:31:15;;;;;;;;;;;;;;;;;;5042964;28;19936;-62
2023/09/12 14:33:41;;;;;;;;;;;;;;;;;;5046243;28;19968;-61
2023/09/12 14:36:07;;;;;;;;;;;;;;;;;;5045777;28;19979;-61
2023/09/12 14:38:32;;;;;;;;;;;;;;;;;;5047284;28;19968;-62
2023/09/12 14:40:58;;;;;;;;;;;;;;;;;;5043690;28;20433;-61
2023/09/12 14:43:25;;;;;;;;;;;;;;;;;;5043453;28;19983;-61
2023/09/12 14:45:51;;;;;;;;;;;;;;;;;;5041897;28;19955;-62
2023/09/12 14:48:17;;;;;;;;;;;;;;;;;;5024738;28;19929;-61
2023/09/12 14:50:42;;;;;;;;;;;;;;;;;;5042132;28;19970;-61
2023/09/12 14:53:08;;;;;;;;;;;;;;;;;;5042481;28;20371;-61
2023/09/12 14:55:34;;;;;;;;;;;;;;;;;;5053775;28;20385;-61
2023/09/12 14:58:00;;;;;;;;;;;;;;;;;;5044619;28;19932;-62
2023/09/12 15:00:27;;;;;;;;;;;;;;;;;;5043065;28;19968;-62
2023/09/12 15:02:53;;;;;;;;;;;;;;;;;;5048056;28;19933;-61
2023/09/12 15:05:19;;;;;;;;;;;;;;;;;;5038916;28;21086;-62
2023/09/12 15:07:45;;;;;;;;;;;;;;;;;;5042518;28;19979;-62
2023/09/12 15:10:11;;;;;;;;;;;;;;;;;;5043124;28;20051;-62
2023/09/12 15:12:37;;;;;;;;;;;;;;;;;;5039714;28;19931;-62
2023/09/12 15:15:03;;;;;;;;;;;;;;;;;;5038472;28;20321;-61
2023/09/12 15:17:29;;;;;;;;;;;;;;;;;;5043139;28;19925;-61
2023/09/12 15:19:55;;;;;;;;;;;;;;;;;;5041000;28;19979;-61
2023/09/12 15:22:21;;;;;;;;;;;;;;;;;;5042539;28;19977;-61
2023/09/12 15:24:47;;;;;;;;;;;;;;;;;;5023573;28;20016;-61
2023/09/12 15:27:13;;;;;;;;;;;;;;;;;;5043358;28;20176;-61
2023/09/12 15:29:39;;;;;;;;;;;;;;;;;;5044217;28;19935;-61
2023/09/12 15:32:05;;;;;;;;;;;;;;;;;;5042712;28;20385;-62
2023/09/12 15:34:31;;;;;;;;;;;;;;;;;;5043866;28;19924;-62
2023/09/12 15:36:57;;;;;;;;;;;;;;;;;;5044632;28;20012;-62
2023/09/12 15:39:23;;;;;;;;;;;;;;;;;;5043822;28;19929;-62
2023/09/12 15:41:49;;;;;;;;;;;;;;;;;;5048791;28;19925;-62
2023/09/12 15:44:15;;;;;;;;;;;;;;;;;;5049534;28;20422;-62
2023/09/12 15:46:43;;;;;;;;;;;;;;;;;;5041132;28;20082;-62
2023/09/12 15:49:09;;;;;;;;;;;;;;;;;;5040934;28;19928;-63
2023/09/12 15:51:35;;;;;;;;;;;;;;;;;;5045238;28;20664;-62
2023/09/12 15:54:01;;;;;;;;;;;;;;;;;;5044364;28;20019;-62
2023/09/12 15:56:27;;;;;;;;;;;;;;;;;;5040750;28;19932;-64
2023/09/12 15:58:55;;;;;;;;;;;;;;;;;;5040865;28;20429;-63
2023/09/12 16:01:21;;;;;;;;;;;;;;;;;;5038662;28;19925;-62
2023/09/12 16:03:47;;;;;;;;;;;;;;;;;;5043103;28;20349;-62
2023/09/12 16:06:13;;;;;;;;;;;;;;;;;;5044873;28;19928;-62
2023/09/12 16:08:39;;;;;;;;;;;;;;;;;;5040638;28;19983;-62
2023/09/12 16:11:05;;;;;;;;;;;;;;;;;;5040493;28;19935;-62
2023/09/12 16:13:31;;;;;;;;;;;;;;;;;;5039817;28;19928;-62
2023/09/12 16:15:57;;;;;;;;;;;;;;;;;;5040892;28;20358;-63
2023/09/12 16:18:25;;;;;;;;;;;;;;;;;;5039925;28;19940;-63
2023/09/12 16:20:51;;;;;;;;;;;;;;;;;;5040658;28;19990;-62
2023/09/12 16:23:17;;;;;;;;;;;;;;;;;;5045462;28;20086;-62
2023/09/12 16:25:44;;;;;;;;;;;;;;;;;;5043003;28;19929;-62
2023/09/12 16:28:10;;;;;;;;;;;;;;;;;;5041889;28;20382;-62
2023/09/12 16:30:38;;;;;;;;;;;;;;;;;;5039095;28;19936;-62
2023/09/12 16:33:04;;;;;;;;;;;;;;;;;;5039676;28;19933;-63
2023/09/12 16:35:30;;;;;;;;;;;;;;;;;;5048409;28;19985;-62
2023/09/12 16:37:57;;;;;;;;;;;;;;;;;;5051152;28;19929;-62